createdAt,value
2023-03-12T00:02:03.697Z,76.41
2023-03-12T00:04:49.253Z,76.77
2023-03-12T00:07:36.274Z,76.68
2023-03-12T00:10:21.815Z,78.91
2023-03-12T00:13:07.988Z,73.22
2023-03-12T00:15:53.600Z,73.75
2023-03-12T00:18:38.610Z,76.27
2023-03-12T00:21:24.065Z,76.08
2023-03-12T00:24:09.245Z,74.96
2023-03-12T00:26:54.022Z,77.57
2023-03-12T00:29:38.724Z,76.53
2023-03-12T00:32:24.067Z,77.11
2023-03-12T00:35:09.930Z,74.90
2023-03-12T00:37:55.068Z,80.36
2023-03-12T00:40:39.973Z,75.10
2023-03-12T00:43:24.796Z,80.56
2023-03-12T00:46:09.917Z,75.13
2023-03-12T00:48:55.186Z,76.68
2023-03-12T00:51:40.212Z,75.58
2023-03-12T00:54:25.425Z,76.91
2023-03-12T00:57:10.567Z,75.01
2023-03-12T00:59:55.934Z,74.25
2023-03-12T01:02:41.105Z,76.38
2023-03-12T01:05:26.380Z,77.36
2023-03-12T01:08:11.792Z,74.74
2023-03-12T01:10:57.530Z,75.87
2023-03-12T01:13:42.856Z,78.34
2023-03-12T01:16:30.547Z,77.74
2023-03-12T01:19:15.678Z,77.16
2023-03-12T01:22:01.184Z,76.10
2023-03-12T01:24:46.267Z,79.22
2023-03-12T01:27:32.196Z,80.81
2023-03-12T01:30:17.148Z,80.89
2023-03-12T01:33:02.183Z,76.55
2023-03-12T01:35:47.072Z,76.31
2023-03-12T01:38:31.890Z,78.46
2023-03-12T01:41:17.835Z,78.62
2023-03-12T01:44:04.943Z,80.73
2023-03-12T01:46:50.455Z,79.07
2023-03-12T01:49:35.603Z,73.61
2023-03-12T01:52:29.597Z,80.35
2023-03-12T01:55:16.998Z,79.49
2023-03-12T01:58:02.811Z,79.00
2023-03-12T02:00:47.998Z,79.40
2023-03-12T02:03:34.753Z,78.68
2023-03-12T02:06:26.433Z,78.95
2023-03-12T02:09:13.065Z,79.36
2023-03-12T02:11:57.874Z,78.19
2023-03-12T02:14:43.262Z,78.87
2023-03-12T02:17:28.392Z,78.18
2023-03-12T02:20:33.566Z,78.95
2023-03-12T02:23:32.440Z,78.03
2023-03-12T02:26:19.464Z,78.22
2023-03-12T02:29:05.734Z,78.50
2023-03-12T02:31:54.220Z,77.84
2023-03-12T02:34:39.536Z,78.84
2023-03-12T02:37:24.318Z,76.50
2023-03-12T02:40:25.896Z,78.10
2023-03-12T02:43:11.448Z,77.90
2023-03-12T02:45:56.787Z,79.15
2023-03-12T02:48:42.263Z,78.67
2023-03-12T02:51:27.196Z,79.07
2023-03-12T02:54:13.554Z,78.10
2023-03-12T02:56:59.420Z,77.86
2023-03-12T02:59:44.811Z,79.60
2023-03-12T03:02:29.734Z,79.07
2023-03-12T03:05:15.462Z,78.87
2023-03-12T03:08:00.598Z,79.12
2023-03-12T03:10:45.851Z,78.84
2023-03-12T03:13:31.008Z,77.67
2023-03-12T03:16:16.350Z,78.17
2023-03-12T03:19:01.880Z,78.77
2023-03-12T03:21:46.813Z,77.88
2023-03-12T03:24:31.728Z,74.80
2023-03-12T03:27:16.911Z,78.12
2023-03-12T03:30:02.786Z,80.15
2023-03-12T03:32:49.682Z,79.26
2023-03-12T03:35:35.059Z,79.28
2023-03-12T03:38:20.214Z,79.27
2023-03-12T03:41:05.397Z,75.50
2023-03-12T03:43:50.375Z,77.88
2023-03-12T03:46:35.729Z,79.01
2023-03-12T03:49:21.091Z,79.37
2023-03-12T03:52:06.756Z,80.37
2023-03-12T03:54:51.567Z,80.30
2023-03-12T03:57:36.430Z,81.69
2023-03-12T04:00:21.897Z,80.43
2023-03-12T04:03:07.133Z,79.14
2023-03-12T04:05:57.326Z,77.49
2023-03-12T04:08:42.348Z,78.68
2023-03-12T04:11:27.274Z,77.79
2023-03-12T04:14:12.431Z,78.53
2023-03-12T04:16:57.795Z,77.91
2023-03-12T04:19:42.726Z,78.25
2023-03-12T04:22:27.843Z,78.30
2023-03-12T04:25:12.768Z,77.81
2023-03-12T04:27:57.677Z,77.80
2023-03-12T04:30:42.529Z,77.76
2023-03-12T04:33:30.341Z,77.33
2023-03-12T04:36:16.137Z,77.95
2023-03-12T04:39:02.119Z,78.36
2023-03-12T04:41:47.451Z,77.47
2023-03-12T04:44:32.560Z,78.11
2023-03-12T04:47:17.286Z,77.82
2023-03-12T04:50:02.033Z,78.01
2023-03-12T04:52:47.138Z,78.15
2023-03-12T04:55:31.881Z,77.93
2023-03-12T04:58:17.799Z,77.30
2023-03-12T05:01:04.108Z,77.73
2023-03-12T05:03:49.250Z,77.95
2023-03-12T05:06:35.122Z,77.45
2023-03-12T05:09:20.334Z,77.05
2023-03-12T05:12:05.538Z,77.29
2023-03-12T05:14:50.623Z,76.76
2023-03-12T05:17:36.077Z,77.38
2023-03-12T05:20:21.682Z,77.94
2023-03-12T05:23:06.872Z,77.00
2023-03-12T05:25:51.856Z,77.13
2023-03-12T05:28:37.013Z,77.13
2023-03-12T05:31:22.258Z,76.82
2023-03-12T05:34:07.686Z,77.42
2023-03-12T05:36:53.037Z,77.28
2023-03-12T05:39:39.459Z,77.14
2023-03-12T05:42:24.902Z,77.48
2023-03-12T05:45:10.442Z,76.83
2023-03-12T05:47:55.908Z,77.43
2023-03-12T05:50:42.125Z,77.14
2023-03-12T05:53:27.259Z,76.92
2023-03-12T05:56:16.378Z,76.71
2023-03-12T05:59:01.507Z,76.84
2023-03-12T06:01:46.504Z,76.90
2023-03-12T06:04:31.968Z,78.70
2023-03-12T06:07:16.959Z,78.88
2023-03-12T06:10:02.432Z,75.44
2023-03-12T06:12:47.124Z,76.18
2023-03-12T06:15:32.201Z,78.57
2023-03-12T06:18:17.349Z,78.45
2023-03-12T06:21:20.552Z,79.54
2023-03-12T06:24:06.083Z,79.97
2023-03-12T06:26:50.957Z,77.80
2023-03-12T06:29:35.885Z,79.83
2023-03-12T06:32:22.054Z,81.10
2023-03-12T06:35:08.517Z,80.03
2023-03-12T06:37:53.800Z,80.11
2023-03-12T06:40:38.745Z,80.54
2023-03-12T06:43:24.446Z,81.19
2023-03-12T06:46:14.124Z,81.50
2023-03-12T06:48:58.862Z,78.74
2023-03-12T06:51:43.979Z,79.50
2023-03-12T06:54:29.085Z,78.97
2023-03-12T06:57:16.812Z,78.67
2023-03-12T07:00:01.879Z,77.66
2023-03-12T07:02:46.649Z,77.83
2023-03-12T07:05:31.297Z,77.82
2023-03-12T07:08:18.553Z,77.15
2023-03-12T07:11:04.169Z,77.89
2023-03-12T07:13:49.370Z,77.99
2023-03-12T07:16:35.924Z,77.46
2023-03-12T07:19:20.797Z,77.41
2023-03-12T07:22:06.593Z,77.55
2023-03-12T07:24:52.875Z,77.41
2023-03-12T07:27:38.181Z,76.93
2023-03-12T07:30:23.410Z,76.90
2023-03-12T07:33:11.581Z,75.59
2023-03-12T07:35:56.886Z,75.67
2023-03-12T07:38:41.888Z,75.19
2023-03-12T07:41:27.026Z,73.91
2023-03-12T07:44:11.816Z,73.77
2023-03-12T07:46:56.779Z,73.89
2023-03-12T07:49:42.071Z,73.90
2023-03-12T07:52:30.292Z,73.80
2023-03-12T07:55:16.562Z,73.35
2023-03-12T07:58:01.700Z,74.07
2023-03-12T08:00:46.640Z,73.93
2023-03-12T08:03:32.274Z,72.17
2023-03-12T08:06:17.521Z,72.44
2023-03-12T08:09:02.381Z,72.31
2023-03-12T08:11:48.214Z,71.62
2023-03-12T08:14:33.984Z,70.74
2023-03-12T08:17:20.539Z,70.41
2023-03-12T08:20:09.608Z,71.82
2023-03-12T08:22:54.508Z,70.62
2023-03-12T08:25:39.280Z,69.74
2023-03-12T08:28:26.035Z,68.73
2023-03-12T08:31:10.912Z,68.31
2023-03-12T08:33:55.995Z,67.31
2023-03-12T08:36:40.847Z,66.71
2023-03-12T08:39:26.186Z,66.44
2023-03-12T08:42:11.774Z,65.55
2023-03-12T08:44:56.768Z,64.67
2023-03-12T08:47:43.420Z,65.59
2023-03-12T08:50:30.750Z,64.55
2023-03-12T08:53:15.594Z,63.92
2023-03-12T08:56:01.345Z,62.96
2023-03-12T08:58:46.523Z,61.89
2023-03-12T09:01:31.597Z,63.03
2023-03-12T09:04:17.192Z,60.83
2023-03-12T09:07:02.161Z,62.13
2023-03-12T09:09:47.028Z,60.90
2023-03-12T09:12:32.269Z,59.97
2023-03-12T09:15:18.281Z,59.38
2023-03-12T09:18:03.714Z,61.03
2023-03-12T09:20:49.118Z,59.95
2023-03-12T09:23:34.182Z,59.33
2023-03-12T09:26:18.994Z,56.98
2023-03-12T09:29:04.484Z,57.94
2023-03-12T09:31:49.644Z,58.21
2023-03-12T09:34:35.206Z,56.77
2023-03-12T09:37:23.589Z,56.47
2023-03-12T09:40:16.734Z,56.01
2023-03-12T09:43:06.417Z,56.28
2023-03-12T09:45:51.749Z,55.69
2023-03-12T09:48:37.772Z,54.46
2023-03-12T09:51:41.022Z,53.73
2023-03-12T09:54:41.642Z,53.97
2023-03-12T09:57:29.798Z,54.36
2023-03-12T10:00:21.654Z,54.14
2023-03-12T10:03:35.476Z,54.52
2023-03-12T10:06:24.754Z,54.05
2023-03-12T10:09:33.947Z,53.73
2023-03-12T10:12:30.936Z,54.79
2023-03-12T10:15:48.955Z,52.37
2023-03-12T10:18:53.033Z,52.94
2023-03-12T10:22:11.111Z,52.69
2023-03-12T10:25:11.086Z,52.37
2023-03-12T10:28:02.502Z,52.74
2023-03-12T10:30:54.213Z,50.68
2023-03-12T10:33:48.083Z,51.06
2023-03-12T10:36:39.775Z,52.73
2023-03-12T10:39:24.844Z,51.08
2023-03-12T10:42:30.345Z,52.32
2023-03-12T10:45:37.741Z,52.37
2023-03-12T10:48:26.058Z,52.47
2023-03-12T10:51:12.920Z,50.53
2023-03-12T10:53:58.117Z,52.70
2023-03-12T10:56:51.164Z,50.60
2023-03-12T10:59:42.958Z,51.03
2023-03-12T11:02:33.027Z,51.25
2023-03-12T11:05:37.559Z,51.42
2023-03-12T11:08:34.412Z,52.34
2023-03-12T11:11:33.074Z,51.24
2023-03-12T11:14:25.072Z,51.98
2023-03-12T11:17:21.801Z,53.12
2023-03-12T11:20:27.483Z,52.78
2023-03-12T11:23:31.676Z,52.79
2023-03-12T11:26:20.910Z,53.67
2023-03-12T11:29:17.206Z,54.86
2023-03-12T11:32:21.453Z,54.35
2023-03-12T11:35:11.942Z,55.66
2023-03-12T11:38:17.625Z,56.13
2023-03-12T11:41:43.274Z,56.61
2023-03-12T11:44:57.575Z,57.91
2023-03-12T11:48:15.982Z,57.08
2023-03-12T11:51:06.780Z,59.23
2023-03-12T11:54:04.099Z,58.64
2023-03-12T11:56:53.151Z,58.95
2023-03-12T11:59:47.328Z,59.38
2023-03-12T12:02:42.154Z,59.68
2023-03-12T12:06:05.071Z,60.03
2023-03-12T12:09:07.013Z,60.17
2023-03-12T12:12:21.089Z,60.67
2023-03-12T12:15:18.384Z,60.96
2023-03-12T12:18:19.152Z,62.04
2023-03-12T12:21:37.578Z,61.95
2023-03-12T12:24:39.272Z,61.67
2023-03-12T12:27:29.068Z,62.60
2023-03-12T12:31:19.827Z,62.60
2023-03-12T12:34:26.649Z,65.45
2023-03-12T12:37:14.612Z,66.43
2023-03-12T12:40:12.427Z,66.50
2023-03-12T12:43:16.393Z,67.89
2023-03-12T12:46:09.706Z,70.07
2023-03-12T12:48:57.245Z,71.42
2023-03-12T12:51:47.743Z,72.97
2023-03-12T12:55:13.217Z,74.70
2023-03-12T12:58:11.405Z,74.84
2023-03-12T13:01:01.302Z,74.55
2023-03-12T13:03:48.715Z,75.48
2023-03-12T13:07:17.404Z,75.03
2023-03-12T13:10:06.779Z,75.91
2023-03-12T13:12:56.599Z,76.64
2023-03-12T13:15:44.149Z,77.45
2023-03-12T13:18:31.629Z,76.49
2023-03-12T13:21:28.242Z,75.90
2023-03-12T13:24:43.327Z,75.87
2023-03-12T13:27:37.803Z,76.06
2023-03-12T13:30:35.140Z,75.98
2023-03-12T13:33:39.033Z,76.20
2023-03-12T13:36:30.032Z,77.03
2023-03-12T13:39:15.190Z,78.31
2023-03-12T13:42:25.093Z,78.37
2023-03-12T13:45:28.745Z,79.07
2023-03-12T13:48:23.041Z,79.70
2023-03-12T13:51:17.808Z,80.12
2023-03-12T13:54:06.593Z,80.38
2023-03-12T13:57:04.406Z,81.43
2023-03-12T13:59:51.192Z,81.86
2023-03-12T14:02:45.100Z,81.04
2023-03-12T14:05:55.253Z,81.73
2023-03-12T14:08:59.270Z,82.68
2023-03-12T14:12:06.009Z,81.42
2023-03-12T14:15:13.761Z,81.57
2023-03-12T14:18:03.267Z,81.39
2023-03-12T14:21:06.917Z,81.58
2023-03-12T14:23:57.015Z,82.51
2023-03-12T14:26:47.857Z,82.51
2023-03-12T14:29:41.165Z,82.92
2023-03-12T14:32:32.171Z,84.65
2023-03-12T14:35:23.509Z,84.56
2023-03-12T14:38:18.753Z,85.29
2023-03-12T14:41:14.330Z,86.07
2023-03-12T14:44:07.079Z,86.77
2023-03-12T14:47:01.336Z,87.18
2023-03-12T14:49:47.496Z,86.82
2023-03-12T14:52:34.176Z,87.56
2023-03-12T14:55:27.768Z,87.29
2023-03-12T14:58:19.836Z,87.72
2023-03-12T15:01:08.625Z,87.61
2023-03-12T15:03:58.090Z,87.92
2023-03-12T15:06:46.916Z,88.93
2023-03-12T15:09:37.776Z,89.06
2023-03-12T15:12:35.169Z,89.16
2023-03-12T15:15:43.907Z,89.40
2023-03-12T15:18:31.662Z,89.88
2023-03-12T15:21:17.541Z,89.87
2023-03-12T15:24:03.449Z,90.35
2023-03-12T15:26:48.493Z,90.57
2023-03-12T15:29:35.957Z,90.35
2023-03-12T15:32:24.952Z,90.41
2023-03-12T15:35:15.021Z,90.80
2023-03-12T15:38:02.423Z,91.97
2023-03-12T15:41:02.738Z,91.10
2023-03-12T15:43:59.580Z,92.33
2023-03-12T15:46:49.120Z,91.75
2023-03-12T15:49:37.735Z,92.01
2023-03-12T15:52:23.218Z,92.48
2023-03-12T15:55:15.788Z,92.64
2023-03-12T15:58:03.785Z,93.46
2023-03-12T16:00:49.389Z,93.35
2023-03-12T16:03:35.465Z,93.42
2023-03-12T16:06:25.426Z,93.09
2023-03-12T16:09:16.095Z,93.59
2023-03-12T16:12:01.276Z,93.11
2023-03-12T16:14:46.818Z,93.76
2023-03-12T16:17:32.411Z,93.76
2023-03-12T16:20:20.185Z,93.89
2023-03-12T16:23:08.049Z,93.33
2023-03-12T16:25:56.372Z,93.25
2023-03-12T16:28:41.840Z,93.42
2023-03-12T16:31:27.777Z,93.55
2023-03-12T16:34:12.816Z,93.84
2023-03-12T16:36:58.036Z,93.73
2023-03-12T16:39:48.556Z,93.79
2023-03-12T16:42:37.927Z,93.81
2023-03-12T16:45:28.113Z,93.42
2023-03-12T16:48:19.762Z,93.62
2023-03-12T16:51:05.516Z,93.99
2023-03-12T16:54:05.235Z,93.40
2023-03-12T16:56:54.373Z,94.00
2023-03-12T16:59:40.465Z,94.15
2023-03-12T17:02:25.798Z,93.63
2023-03-12T17:05:12.930Z,93.55
2023-03-12T17:07:59.375Z,93.35
2023-03-12T17:10:45.013Z,94.09
2023-03-12T17:13:30.288Z,94.46
2023-03-12T17:16:15.840Z,93.73
2023-03-12T17:19:00.678Z,94.48
2023-03-12T17:21:47.669Z,94.38
2023-03-12T17:24:33.701Z,94.66
2023-03-12T17:27:20.180Z,94.53
2023-03-12T17:30:06.348Z,94.72
2023-03-12T17:32:52.436Z,94.70
2023-03-12T17:35:39.888Z,94.75
2023-03-12T17:38:26.515Z,94.73
2023-03-12T17:41:25.642Z,94.54
2023-03-12T17:44:13.644Z,94.56
2023-03-12T17:47:01.415Z,95.11
2023-03-12T17:49:47.918Z,94.76
2023-03-12T17:52:33.065Z,94.91
2023-03-12T17:55:19.194Z,95.47
2023-03-12T17:58:06.218Z,95.44
2023-03-12T18:00:51.121Z,95.29
2023-03-12T18:03:36.756Z,95.73
2023-03-12T18:06:22.224Z,95.09
2023-03-12T18:09:07.044Z,94.86
2023-03-12T18:11:53.652Z,95.02
2023-03-12T18:14:41.658Z,95.28
2023-03-12T18:17:31.510Z,95.13
2023-03-12T18:20:28.787Z,95.54
2023-03-12T18:23:21.121Z,95.33
2023-03-12T18:26:07.935Z,95.52
2023-03-12T18:28:53.832Z,94.93
2023-03-12T18:31:40.365Z,95.61
2023-03-12T18:34:25.387Z,95.74
2023-03-12T18:37:13.537Z,94.91
2023-03-12T18:39:58.597Z,95.06
2023-03-12T18:42:44.381Z,95.56
2023-03-12T18:45:29.982Z,95.28
2023-03-12T18:48:15.040Z,95.35
2023-03-12T18:51:00.213Z,94.86
2023-03-12T18:53:47.777Z,95.06
2023-03-12T18:56:33.312Z,94.83
2023-03-12T18:59:18.626Z,95.24
2023-03-12T19:02:04.741Z,94.92
2023-03-12T19:04:56.011Z,94.83
2023-03-12T19:07:41.682Z,94.85
2023-03-12T19:10:28.935Z,95.23
2023-03-12T19:13:15.443Z,95.36
2023-03-12T19:16:03.111Z,95.43
2023-03-12T19:18:50.194Z,95.07
2023-03-12T19:24:48.539Z,94.67
2023-03-12T19:27:37.936Z,94.61
2023-03-12T19:30:25.810Z,94.71
2023-03-12T19:36:18.427Z,94.00
2023-03-12T19:39:20.421Z,94.60
2023-03-12T19:42:07.937Z,94.46
2023-03-12T19:44:53.485Z,94.35
2023-03-12T19:47:38.546Z,94.88
2023-03-12T19:50:25.044Z,94.59
2023-03-12T19:53:14.526Z,94.30
2023-03-12T19:56:01.201Z,93.89
2023-03-12T19:58:46.489Z,94.06
2023-03-12T20:01:33.953Z,94.10
2023-03-12T20:04:19.300Z,94.70
2023-03-12T20:07:05.364Z,94.28
2023-03-12T20:09:52.099Z,94.54
2023-03-12T20:12:38.594Z,94.34
2023-03-12T20:15:23.724Z,94.00
2023-03-12T20:18:09.303Z,94.00
2023-03-12T20:20:56.190Z,94.34
2023-03-12T20:23:41.846Z,94.78
2023-03-12T20:26:26.704Z,94.37
2023-03-12T20:29:11.704Z,94.33
2023-03-12T20:31:57.997Z,94.59
2023-03-12T20:34:42.911Z,94.78
2023-03-12T20:37:28.047Z,94.36
2023-03-12T20:40:13.677Z,94.53
2023-03-12T20:43:06.864Z,95.07
2023-03-12T20:45:52.112Z,94.93
2023-03-12T20:48:38.912Z,94.71
2023-03-12T20:51:24.799Z,94.96
2023-03-12T20:54:10.767Z,94.66
2023-03-12T20:56:57.338Z,94.28
2023-03-12T20:59:42.716Z,94.15
2023-03-12T21:02:28.078Z,94.73
2023-03-12T21:05:15.776Z,95.02
2023-03-12T21:08:01.671Z,94.36
2023-03-12T21:10:47.047Z,94.08
2023-03-12T21:13:34.508Z,93.73
2023-03-12T21:16:20.211Z,94.25
2023-03-12T21:19:05.487Z,94.36
2023-03-12T21:21:55.816Z,94.67
2023-03-12T21:24:41.086Z,94.61
2023-03-12T21:27:26.888Z,94.12
2023-03-12T21:30:12.519Z,93.97
2023-03-12T21:32:57.619Z,94.12
2023-03-12T21:35:46.329Z,93.91
2023-03-12T21:38:33.017Z,93.89
2023-03-12T21:41:19.456Z,93.44
2023-03-12T21:44:04.841Z,93.49
2023-03-12T21:46:50.045Z,93.44
2023-03-12T21:49:36.130Z,93.09
2023-03-12T21:52:22.155Z,93.00
2023-03-12T21:55:08.149Z,92.63
2023-03-12T21:57:53.102Z,92.96
2023-03-12T22:00:38.373Z,92.55
2023-03-12T22:03:23.599Z,92.78
2023-03-12T22:06:11.230Z,92.53
2023-03-12T22:08:56.533Z,92.72
2023-03-12T22:11:41.414Z,92.35
2023-03-12T22:14:26.367Z,92.34
2023-03-12T22:17:11.521Z,92.68
2023-03-12T22:19:56.645Z,92.26
2023-03-12T22:22:41.817Z,91.91
2023-03-12T22:25:27.160Z,92.25
2023-03-12T22:28:12.392Z,91.40
2023-03-12T22:31:02.639Z,91.11
2023-03-12T22:33:48.099Z,92.00
2023-03-12T22:36:33.452Z,91.94
2023-03-12T22:39:18.616Z,91.53
2023-03-12T22:42:03.901Z,91.92
2023-03-12T22:44:49.525Z,91.71
2023-03-12T22:47:35.685Z,91.56
2023-03-12T22:50:21.047Z,91.51
2023-03-12T22:53:06.261Z,91.71
2023-03-12T22:56:05.475Z,91.04
2023-03-12T22:58:50.827Z,90.77
2023-03-12T23:01:35.978Z,90.84
2023-03-12T23:04:21.385Z,90.91
2023-03-12T23:07:14.592Z,90.44
2023-03-12T23:10:03.935Z,90.60
2023-03-12T23:12:48.800Z,90.72
2023-03-12T23:15:40.739Z,90.57
2023-03-12T23:18:26.972Z,90.01
2023-03-12T23:21:15.016Z,91.10
2023-03-12T23:24:00.363Z,90.24
2023-03-12T23:26:45.952Z,90.31
2023-03-12T23:29:32.303Z,91.39
2023-03-12T23:32:17.550Z,90.55
2023-03-12T23:35:02.433Z,90.92
2023-03-12T23:37:50.515Z,90.70
2023-03-12T23:40:35.441Z,90.36
2023-03-12T23:43:20.521Z,90.52
2023-03-12T23:46:07.542Z,90.27
2023-03-12T23:48:53.865Z,90.00
2023-03-12T23:51:40.779Z,89.54
2023-03-12T23:54:25.991Z,89.34
2023-03-12T23:57:11.341Z,89.66
2023-03-12T23:59:56.163Z,89.29
